createdAt,value
2023-02-14T00:03:10.234Z,5.37
2023-02-14T00:18:47.234Z,5.44
2023-02-14T00:33:50.034Z,5.22
2023-02-14T00:48:52.735Z,5.21
2023-02-14T01:04:10.357Z,5.46
2023-02-14T01:19:13.409Z,5.32
2023-02-14T01:34:15.828Z,5.26
2023-02-14T01:49:26.566Z,5.31
2023-02-14T02:04:46.386Z,4.95
2023-02-14T02:20:28.411Z,4.56
2023-02-14T02:35:52.014Z,4.62
2023-02-14T02:51:38.526Z,4.63
2023-02-14T03:06:58.611Z,4.26
2023-02-14T03:22:52.290Z,3.87
2023-02-14T03:38:24.647Z,3.95
2023-02-14T03:53:34.744Z,3.97
2023-02-14T04:08:52.015Z,3.91
2023-02-14T04:24:08.948Z,4.05
2023-02-14T04:39:11.753Z,4.38
2023-02-14T04:54:14.518Z,4.74
2023-02-14T05:09:17.368Z,4.66
2023-02-14T05:24:19.887Z,4.49
2023-02-14T05:39:22.737Z,4.43
2023-02-14T05:54:39.977Z,4.76
2023-02-14T06:09:42.533Z,4.90
2023-02-14T06:24:45.011Z,4.72
2023-02-14T06:39:47.794Z,4.54
2023-02-14T06:54:50.624Z,4.80
2023-02-14T07:09:53.462Z,4.99
2023-02-14T07:24:56.363Z,4.89
2023-02-14T07:39:59.356Z,4.99
2023-02-14T07:55:01.857Z,5.32
2023-02-14T08:10:06.116Z,5.46
2023-02-14T08:25:08.620Z,5.55
2023-02-14T08:40:11.412Z,5.89
2023-02-14T08:55:14.135Z,6.16
2023-02-14T09:10:20.469Z,6.38
2023-02-14T09:25:23.020Z,6.53
2023-02-14T09:40:40.213Z,6.79
2023-02-14T09:56:33.569Z,6.78
2023-02-14T10:11:45.004Z,6.90
2023-02-14T10:26:50.333Z,7.03
2023-02-14T10:42:03.106Z,7.44
2023-02-14T10:57:18.951Z,7.42
2023-02-14T11:12:41.509Z,7.43
2023-02-14T11:27:50.495Z,7.80
2023-02-14T11:43:02.221Z,7.95
2023-02-14T11:59:02.464Z,8.13
2023-02-14T12:14:05.401Z,8.55
2023-02-14T12:29:41.182Z,8.58
2023-02-14T12:45:08.822Z,8.25
2023-02-14T13:00:44.788Z,8.43
2023-02-14T13:16:41.948Z,8.78
2023-02-14T13:31:46.158Z,9.09
2023-02-14T13:46:51.552Z,9.04
2023-02-14T14:02:29.947Z,8.65
2023-02-14T14:17:45.556Z,8.32
2023-02-14T14:32:48.212Z,8.00
2023-02-14T14:48:13.218Z,7.72
2023-02-14T15:03:22.070Z,7.65
2023-02-14T15:18:24.806Z,7.64
2023-02-14T15:33:30.843Z,7.49
2023-02-14T15:48:34.412Z,7.11
2023-02-14T16:03:48.700Z,6.60
2023-02-14T16:18:56.223Z,6.11
2023-02-14T16:33:59.102Z,5.92
2023-02-14T16:49:01.856Z,5.59
2023-02-14T17:04:04.290Z,5.12
2023-02-14T17:19:06.885Z,4.68
2023-02-14T17:34:10.376Z,4.38
2023-02-14T17:49:12.857Z,4.42
2023-02-14T18:04:15.410Z,4.19
2023-02-14T18:19:18.148Z,3.80
2023-02-14T18:34:20.671Z,3.35
2023-02-14T18:49:23.470Z,3.07
2023-02-14T19:04:26.238Z,3.11
2023-02-14T19:19:29.051Z,2.82
2023-02-14T19:34:32.922Z,2.47
2023-02-14T19:49:35.663Z,2.09
2023-02-14T20:04:38.069Z,1.76
2023-02-14T20:19:40.737Z,1.62
2023-02-14T20:34:44.468Z,1.88
2023-02-14T20:49:47.160Z,1.75
2023-02-14T21:04:49.759Z,1.41
2023-02-14T21:19:52.181Z,1.15
2023-02-14T21:34:54.953Z,1.10
2023-02-14T21:50:20.756Z,1.39
2023-02-14T22:05:37.871Z,1.42
2023-02-14T22:21:10.875Z,1.27
2023-02-14T22:36:14.349Z,1.06
2023-02-14T22:51:28.574Z,0.97
2023-02-14T23:06:45.557Z,1.34
2023-02-14T23:22:15.115Z,1.29
2023-02-14T23:37:17.576Z,0.91
2023-02-14T23:52:19.758Z,0.59
